createdAt,value
2023-03-28T00:01:06.216Z,4.75
2023-03-28T00:03:36.371Z,5.15
2023-03-28T00:06:05.593Z,4.53
2023-03-28T00:08:34.474Z,4.38
2023-03-28T00:11:07.021Z,5.10
2023-03-28T00:13:35.194Z,3.78
2023-03-28T00:16:08.786Z,3.65
2023-03-28T00:18:40.227Z,4.55
2023-03-28T00:21:38.000Z,4.72
2023-03-28T00:24:07.053Z,5.18
2023-03-28T00:26:35.963Z,6.03
2023-03-28T00:29:05.491Z,4.60
2023-03-28T00:31:34.923Z,4.63
2023-03-28T00:34:02.378Z,5.95
2023-03-28T00:36:32.614Z,6.30
2023-03-28T00:39:07.024Z,5.10
2023-03-28T00:41:37.015Z,5.15
2023-03-28T00:44:43.895Z,6.88
2023-03-28T00:47:37.438Z,6.93
2023-03-28T00:50:21.351Z,5.97
2023-03-28T00:53:02.288Z,5.80
2023-03-28T00:55:35.911Z,7.68
2023-03-28T00:58:05.550Z,5.77
2023-03-28T01:00:34.984Z,5.93
2023-03-28T01:03:06.731Z,8.02
2023-03-28T01:05:36.438Z,6.25
2023-03-28T01:08:12.595Z,6.63
2023-03-28T01:10:41.100Z,7.93
2023-03-28T01:13:09.423Z,7.85
2023-03-28T01:15:36.822Z,9.20
2023-03-28T01:18:10.675Z,6.18
2023-03-28T01:21:09.095Z,5.95
2023-03-28T01:23:42.068Z,5.80
2023-03-28T01:26:33.425Z,7.13
2023-03-28T01:29:20.678Z,7.82
2023-03-28T01:32:12.407Z,8.20
2023-03-28T01:34:45.496Z,6.28
2023-03-28T01:37:31.506Z,5.78
2023-03-28T01:40:24.027Z,5.75
2023-03-28T01:43:10.041Z,6.47
2023-03-28T01:46:00.747Z,6.55
2023-03-28T01:48:27.821Z,5.38
2023-03-28T01:51:23.957Z,7.25
2023-03-28T01:54:12.704Z,7.43
2023-03-28T01:56:42.738Z,7.88
2023-03-28T01:59:18.083Z,5.82
2023-03-28T02:01:50.696Z,6.82
2023-03-28T02:04:21.490Z,6.85
2023-03-28T02:06:51.548Z,6.63
2023-03-28T02:09:24.624Z,9.43
2023-03-28T02:11:59.549Z,6.05
2023-03-28T02:17:00.558Z,6.57
2023-03-28T02:19:29.325Z,8.40
2023-03-28T02:22:06.636Z,5.78
2023-03-28T02:24:33.567Z,6.82
2023-03-28T02:27:00.635Z,9.55
2023-03-28T02:29:28.499Z,4.43
2023-03-28T02:31:55.756Z,6.20
2023-03-28T02:34:23.232Z,7.43
2023-03-28T02:37:22.547Z,6.78
2023-03-28T02:39:58.487Z,6.53
2023-03-28T02:42:37.040Z,6.88
2023-03-28T02:45:35.202Z,6.22
2023-03-28T02:48:21.285Z,7.75
2023-03-28T02:51:11.445Z,7.32
2023-03-28T02:53:50.626Z,7.38
2023-03-28T02:56:38.776Z,5.50
2023-03-28T02:59:14.883Z,6.15
2023-03-28T03:01:42.780Z,5.82
2023-03-28T03:04:10.443Z,8.10
2023-03-28T03:06:37.531Z,6.80
2023-03-28T03:09:06.003Z,5.85
2023-03-28T03:11:33.169Z,5.38
2023-03-28T03:14:00.521Z,7.70
2023-03-28T03:16:29.316Z,6.10
2023-03-28T03:18:59.489Z,6.45
2023-03-28T03:21:27.252Z,7.03
2023-03-28T03:23:54.218Z,7.18
2023-03-28T03:26:21.232Z,5.90
2023-03-28T03:28:49.499Z,8.82
2023-03-28T03:31:17.524Z,6.53
2023-03-28T03:33:44.627Z,7.25
2023-03-28T03:36:12.780Z,5.88
2023-03-28T03:38:40.305Z,8.50
2023-03-28T03:41:07.385Z,8.02
2023-03-28T03:43:34.506Z,8.32
2023-03-28T03:46:02.584Z,7.65
2023-03-28T03:48:30.177Z,6.22
2023-03-28T03:50:57.198Z,6.68
2023-03-28T03:53:24.290Z,7.25
2023-03-28T03:55:51.183Z,9.60
2023-03-28T03:58:18.852Z,7.60
2023-03-28T04:00:48.975Z,6.25
2023-03-28T04:03:23.868Z,6.75
2023-03-28T04:05:58.051Z,7.20
2023-03-28T04:08:25.820Z,8.02
2023-03-28T04:10:52.816Z,9.98
2023-03-28T04:13:19.718Z,8.75
2023-03-28T04:15:47.780Z,9.00
2023-03-28T04:18:20.428Z,9.18
2023-03-28T04:20:55.098Z,6.78
2023-03-28T04:23:25.926Z,7.28
2023-03-28T04:26:00.499Z,7.45
2023-03-28T04:28:27.832Z,8.90
2023-03-28T04:30:59.653Z,7.55
2023-03-28T04:33:33.859Z,7.03
2023-03-28T04:36:02.269Z,6.32
2023-03-28T04:38:36.446Z,11.57
2023-03-28T04:41:05.448Z,7.55
2023-03-28T04:43:32.727Z,8.75
2023-03-28T04:46:00.140Z,8.35
2023-03-28T04:48:27.671Z,8.80
2023-03-28T04:50:56.200Z,9.32
2023-03-28T04:53:24.091Z,8.50
2023-03-28T04:55:51.323Z,8.95
2023-03-28T04:58:20.746Z,9.20
2023-03-28T05:00:49.688Z,8.95
2023-03-28T05:03:19.117Z,10.77
2023-03-28T05:05:51.359Z,11.32
2023-03-28T05:08:22.566Z,10.38
2023-03-28T05:10:50.506Z,8.07
2023-03-28T05:13:18.311Z,7.07
2023-03-28T05:15:47.449Z,9.02
2023-03-28T05:18:15.359Z,10.05
2023-03-28T05:20:42.366Z,12.85
2023-03-28T05:23:10.290Z,12.88
2023-03-28T05:25:37.202Z,8.80
2023-03-28T05:28:04.611Z,8.88
2023-03-28T05:30:31.688Z,8.77
2023-03-28T05:33:00.342Z,10.80
2023-03-28T05:35:27.674Z,9.52
2023-03-28T05:37:55.455Z,11.07
2023-03-28T05:40:22.472Z,11.75
2023-03-28T05:42:49.743Z,10.32
2023-03-28T05:45:19.783Z,11.40
2023-03-28T05:47:47.003Z,9.98
2023-03-28T05:50:14.067Z,13.20
2023-03-28T05:53:02.915Z,10.90
2023-03-28T05:55:30.309Z,11.57
2023-03-28T05:57:57.611Z,10.70
2023-03-28T06:00:24.750Z,10.65
2023-03-28T06:02:51.958Z,11.85
2023-03-28T06:05:19.619Z,15.02
2023-03-28T06:07:47.384Z,11.60
2023-03-28T06:10:15.750Z,12.38
2023-03-28T06:12:43.040Z,13.63
2023-03-28T06:15:14.905Z,11.23
2023-03-28T06:17:41.960Z,13.68
2023-03-28T06:20:12.482Z,11.55
2023-03-28T06:22:40.149Z,12.30
2023-03-28T06:25:07.566Z,9.32
2023-03-28T06:27:35.661Z,10.07
2023-03-28T06:30:04.978Z,11.43
2023-03-28T06:32:32.377Z,11.18
2023-03-28T06:34:59.634Z,13.27
2023-03-28T06:37:27.111Z,13.75
2023-03-28T06:39:54.339Z,11.82
2023-03-28T06:42:21.650Z,11.55
2023-03-28T06:44:48.669Z,11.50
2023-03-28T06:47:15.772Z,12.07
2023-03-28T06:49:42.911Z,9.38
2023-03-28T06:52:09.950Z,10.27
2023-03-28T06:54:36.956Z,11.70
2023-03-28T06:57:04.365Z,11.38
2023-03-28T06:59:31.597Z,11.27
2023-03-28T07:01:58.748Z,12.35
2023-03-28T07:04:26.126Z,9.55
2023-03-28T07:06:53.213Z,9.00
2023-03-28T07:09:20.298Z,11.45
2023-03-28T07:11:47.566Z,10.77
2023-03-28T07:14:14.712Z,13.48
2023-03-28T07:16:41.904Z,13.55
2023-03-28T07:19:09.028Z,11.60
2023-03-28T07:21:35.977Z,10.10
2023-03-28T07:24:03.151Z,12.80
2023-03-28T07:26:31.289Z,12.75
2023-03-28T07:28:58.349Z,15.77
2023-03-28T07:31:25.954Z,12.90
2023-03-28T07:33:54.944Z,15.48
2023-03-28T07:36:22.615Z,13.55
2023-03-28T07:38:50.257Z,13.55
2023-03-28T07:41:18.592Z,16.80
2023-03-28T07:43:46.029Z,15.75
2023-03-28T07:46:14.970Z,12.88
2023-03-28T07:48:43.316Z,16.02
2023-03-28T07:51:11.415Z,14.10
2023-03-28T07:53:39.139Z,12.98
2023-03-28T07:56:14.694Z,11.00
2023-03-28T07:58:42.838Z,10.80
2023-03-28T08:01:12.810Z,13.23
2023-03-28T08:03:41.733Z,9.60
2023-03-28T08:06:28.797Z,9.35
2023-03-28T08:08:58.430Z,9.07
2023-03-28T08:11:27.007Z,10.02
2023-03-28T08:13:54.316Z,14.70
2023-03-28T08:16:21.762Z,8.77
2023-03-28T08:18:57.086Z,8.02
2023-03-28T08:21:35.323Z,10.38
2023-03-28T08:24:04.225Z,8.10
2023-03-28T08:26:31.775Z,8.98
2023-03-28T08:28:58.996Z,12.40
2023-03-28T08:31:28.097Z,12.55
2023-03-28T08:33:56.570Z,7.35
2023-03-28T08:36:25.893Z,9.38
2023-03-28T08:38:55.068Z,6.57
2023-03-28T08:41:38.830Z,10.15
2023-03-28T08:44:38.160Z,13.48
2023-03-28T08:47:14.059Z,11.88
2023-03-28T08:49:54.051Z,8.85
2023-03-28T08:52:21.507Z,8.25
2023-03-28T08:55:07.128Z,7.38
2023-03-28T08:57:36.293Z,10.43
2023-03-28T09:00:14.678Z,10.48
2023-03-28T09:02:43.728Z,7.80
2023-03-28T09:05:23.317Z,8.75
2023-03-28T09:07:55.699Z,7.65
2023-03-28T09:10:46.612Z,11.43
2023-03-28T09:13:35.287Z,10.32
2023-03-28T09:16:22.556Z,8.40
2023-03-28T09:19:11.097Z,10.80
2023-03-28T09:22:16.293Z,7.80
2023-03-28T09:25:04.806Z,10.80
2023-03-28T09:27:40.344Z,10.90
2023-03-28T09:30:25.245Z,7.65
2023-03-28T09:35:24.926Z,8.65
2023-03-28T09:38:01.038Z,10.05
2023-03-28T09:40:30.519Z,6.80
2023-03-28T09:43:12.699Z,5.55
2023-03-28T09:46:03.003Z,7.55
2023-03-28T09:48:37.885Z,5.20
2023-03-28T09:51:06.820Z,8.70
2023-03-28T09:53:37.821Z,7.47
2023-03-28T09:56:36.112Z,5.90
2023-03-28T09:59:05.191Z,4.70
2023-03-28T10:01:45.711Z,6.43
2023-03-28T10:04:19.195Z,4.60
2023-03-28T10:06:48.089Z,4.63
2023-03-28T10:09:27.068Z,5.72
2023-03-28T10:12:02.218Z,4.68
2023-03-28T10:14:33.645Z,7.32
2023-03-28T10:17:05.321Z,6.05
2023-03-28T10:19:39.526Z,4.28
2023-03-28T10:22:12.179Z,4.95
2023-03-28T10:24:40.275Z,4.95
2023-03-28T10:27:17.239Z,5.63
2023-03-28T10:29:46.824Z,5.00
2023-03-28T10:32:25.027Z,6.38
2023-03-28T10:35:00.746Z,4.75
2023-03-28T10:37:32.253Z,3.35
2023-03-28T10:40:04.794Z,3.53
2023-03-28T10:42:45.292Z,4.75
2023-03-28T10:45:36.479Z,3.30
2023-03-28T10:48:20.184Z,6.22
2023-03-28T10:50:55.966Z,3.65
2023-03-28T10:53:39.705Z,2.92
2023-03-28T10:56:33.730Z,4.65
2023-03-28T10:59:39.176Z,4.22
2023-03-28T11:02:12.276Z,4.40
2023-03-28T11:04:57.985Z,3.72
2023-03-28T11:07:24.853Z,5.50
2023-03-28T11:10:07.860Z,5.88
2023-03-28T11:12:55.527Z,3.88
2023-03-28T11:15:51.581Z,4.10
2023-03-28T11:18:45.040Z,5.68
2023-03-28T11:21:49.250Z,3.33
2023-03-28T11:24:40.632Z,4.80
2023-03-28T11:27:26.594Z,3.42
2023-03-28T11:30:14.774Z,5.35
2023-03-28T11:32:57.627Z,4.35
2023-03-28T11:36:12.596Z,4.57
2023-03-28T11:38:57.011Z,2.13
2023-03-28T11:41:28.025Z,5.90
2023-03-28T11:44:14.016Z,4.03
2023-03-28T11:46:53.475Z,5.15
2023-03-28T11:49:36.774Z,7.25
2023-03-28T11:52:09.457Z,3.60
2023-03-28T11:54:58.563Z,4.10
2023-03-28T11:57:42.749Z,3.78
2023-03-28T12:00:33.176Z,3.70
2023-03-28T12:03:21.508Z,4.57
2023-03-28T12:06:17.123Z,5.22
2023-03-28T12:08:57.901Z,4.70
2023-03-28T12:11:36.290Z,6.90
2023-03-28T12:14:12.702Z,4.32
2023-03-28T12:16:47.430Z,4.15
2023-03-28T12:19:20.028Z,6.15
2023-03-28T12:21:55.684Z,6.07
2023-03-28T12:24:50.044Z,4.38
2023-03-28T12:27:20.754Z,3.05
2023-03-28T12:29:50.662Z,4.57
2023-03-28T12:32:36.088Z,3.33
2023-03-28T12:35:21.485Z,6.60
2023-03-28T12:38:09.981Z,4.32
2023-03-28T12:41:00.583Z,4.40
2023-03-28T12:43:47.957Z,4.22
2023-03-28T12:46:21.207Z,4.50
2023-03-28T12:49:04.860Z,3.35
2023-03-28T12:51:38.943Z,3.60
2023-03-28T12:54:15.423Z,4.20
2023-03-28T12:57:01.222Z,3.22
2023-03-28T12:59:43.344Z,3.67
2023-03-28T13:02:32.394Z,3.58
2023-03-28T13:05:12.980Z,3.38
2023-03-28T13:08:18.739Z,2.90
2023-03-28T13:11:04.876Z,4.38
2023-03-28T13:13:46.916Z,4.03
2023-03-28T13:16:22.743Z,5.10
2023-03-28T13:19:11.665Z,4.57
2023-03-28T13:21:49.821Z,11.05
2023-03-28T13:24:26.284Z,6.03
2023-03-28T13:27:01.296Z,21.38
2023-03-28T13:29:48.140Z,4.30
2023-03-28T13:32:18.380Z,2.95
2023-03-28T13:34:52.431Z,3.78
2023-03-28T13:37:26.022Z,4.10
2023-03-28T13:39:58.871Z,2.75
2023-03-28T13:42:31.686Z,4.25
2023-03-28T13:45:16.493Z,3.95
2023-03-28T13:47:43.863Z,4.90
2023-03-28T13:50:26.508Z,3.88
2023-03-28T13:52:53.576Z,5.13
2023-03-28T13:55:25.833Z,4.15
2023-03-28T13:57:53.506Z,4.18
2023-03-28T14:00:24.468Z,5.90
2023-03-28T14:02:54.686Z,4.03
2023-03-28T14:05:25.992Z,3.45
2023-03-28T14:07:55.445Z,3.10
2023-03-28T14:10:34.897Z,6.45
2023-03-28T14:13:11.990Z,6.90
2023-03-28T14:15:41.117Z,3.63
2023-03-28T14:18:16.530Z,3.22
2023-03-28T14:20:46.836Z,3.75
2023-03-28T14:23:32.012Z,4.68
2023-03-28T14:26:07.342Z,3.67
2023-03-28T14:28:39.334Z,5.05
2023-03-28T14:31:11.384Z,4.32
2023-03-28T14:33:38.738Z,5.63
2023-03-28T14:36:06.733Z,3.90
2023-03-28T14:38:38.070Z,3.20
2023-03-28T14:41:21.745Z,2.65
2023-03-28T14:43:55.000Z,3.17
2023-03-28T14:46:25.933Z,4.03
2023-03-28T14:48:59.519Z,4.07
2023-03-28T14:51:28.158Z,3.80
2023-03-28T14:53:56.838Z,3.40
2023-03-28T14:56:27.525Z,4.03
2023-03-28T14:59:00.126Z,4.07
2023-03-28T15:01:28.226Z,4.63
2023-03-28T15:04:02.761Z,3.97
2023-03-28T15:06:32.665Z,3.88
2023-03-28T15:09:08.214Z,3.30
2023-03-28T15:11:38.448Z,4.55
2023-03-28T15:14:15.455Z,3.67
2023-03-28T15:16:45.796Z,7.70
2023-03-28T15:19:37.580Z,2.78
2023-03-28T15:22:11.720Z,2.92
2023-03-28T15:24:39.659Z,5.25
2023-03-28T15:27:08.265Z,4.22
2023-03-28T15:29:38.654Z,4.07
2023-03-28T15:32:15.904Z,3.13
2023-03-28T15:35:06.539Z,3.42
2023-03-28T15:37:42.566Z,3.72
2023-03-28T15:40:19.170Z,3.45
2023-03-28T15:42:49.807Z,5.38
2023-03-28T15:45:20.174Z,4.70
2023-03-28T15:47:56.180Z,3.40
2023-03-28T15:50:36.311Z,3.78
2023-03-28T15:53:12.348Z,3.85
2023-03-28T15:55:40.450Z,4.68
2023-03-28T15:58:14.311Z,5.72
2023-03-28T16:00:50.042Z,3.65
2023-03-28T16:03:34.096Z,3.75
2023-03-28T16:06:26.768Z,3.08
2023-03-28T16:09:21.913Z,4.43
2023-03-28T16:12:07.322Z,3.38
2023-03-28T16:14:36.343Z,2.25
2023-03-28T16:17:07.562Z,4.63
2023-03-28T16:19:36.135Z,2.35
2023-03-28T16:22:03.981Z,2.90
2023-03-28T16:24:31.427Z,4.88
2023-03-28T16:26:59.816Z,2.78
2023-03-28T16:29:27.610Z,3.65
2023-03-28T16:31:55.224Z,4.05
2023-03-28T16:34:22.428Z,3.63
2023-03-28T16:36:49.655Z,6.45
2023-03-28T16:39:17.073Z,3.60
2023-03-28T16:41:44.133Z,3.33
2023-03-28T16:44:11.889Z,4.47
2023-03-28T16:46:39.175Z,3.70
2023-03-28T16:49:07.354Z,4.53
2023-03-28T16:51:34.529Z,4.38
2023-03-28T16:54:01.451Z,4.28
2023-03-28T16:56:30.251Z,3.35
2023-03-28T16:58:57.466Z,3.10
2023-03-28T17:01:24.727Z,4.57
2023-03-28T17:03:53.372Z,3.40
2023-03-28T17:06:20.898Z,3.03
2023-03-28T17:08:48.479Z,3.38
2023-03-28T17:11:16.025Z,3.72
2023-03-28T17:13:43.360Z,3.08
2023-03-28T17:16:11.436Z,5.13
2023-03-28T17:18:38.513Z,4.35
2023-03-28T17:21:08.017Z,4.28
2023-03-28T17:23:37.596Z,5.57
2023-03-28T17:26:07.936Z,3.05
2023-03-28T17:28:39.052Z,3.60
2023-03-28T17:31:18.708Z,3.50
2023-03-28T17:33:47.404Z,7.32
2023-03-28T17:36:21.808Z,4.25
2023-03-28T17:38:51.039Z,5.35
2023-03-28T17:41:19.054Z,4.68
2023-03-28T17:43:46.810Z,6.45
2023-03-28T17:46:13.917Z,5.75
2023-03-28T17:48:41.942Z,5.38
2023-03-28T17:51:10.602Z,5.70
2023-03-28T17:53:41.825Z,5.60
2023-03-28T17:56:10.271Z,6.82
2023-03-28T17:58:38.097Z,4.03
2023-03-28T18:01:13.669Z,6.20
2023-03-28T18:03:41.716Z,4.82
2023-03-28T18:06:10.292Z,2.70
2023-03-28T18:08:37.733Z,5.05
2023-03-28T18:11:11.103Z,3.65
2023-03-28T18:13:39.360Z,4.40
2023-03-28T18:16:14.083Z,3.92
2023-03-28T18:18:41.732Z,3.55
2023-03-28T18:21:11.687Z,4.07
2023-03-28T18:23:39.144Z,4.43
2023-03-28T18:26:06.879Z,4.40
2023-03-28T18:28:35.190Z,4.22
2023-03-28T18:31:11.403Z,4.80
2023-03-28T18:33:40.392Z,4.40
2023-03-28T18:36:08.365Z,7.35
2023-03-28T18:38:38.353Z,3.65
2023-03-28T18:41:08.338Z,6.65
2023-03-28T18:43:37.386Z,4.18
2023-03-28T18:46:07.975Z,3.45
2023-03-28T18:48:36.432Z,6.53
2023-03-28T18:51:06.557Z,3.55
2023-03-28T18:53:39.846Z,3.30
2023-03-28T18:56:08.248Z,2.88
2023-03-28T18:58:37.417Z,4.63
2023-03-28T19:01:06.629Z,3.15
2023-03-28T19:03:40.615Z,2.38
2023-03-28T19:06:10.072Z,4.55
2023-03-28T19:08:37.485Z,4.13
2023-03-28T19:11:11.864Z,3.22
2023-03-28T19:13:39.132Z,4.53
2023-03-28T19:16:09.743Z,4.50
2023-03-28T19:18:38.166Z,3.40
2023-03-28T19:21:06.215Z,3.05
2023-03-28T19:23:33.941Z,4.72
2023-03-28T19:26:02.075Z,4.53
2023-03-28T19:28:29.256Z,5.70
2023-03-28T19:31:03.970Z,5.43
2023-03-28T19:33:31.417Z,5.43
2023-03-28T19:35:58.774Z,3.63
2023-03-28T19:38:26.616Z,3.60
2023-03-28T19:40:58.249Z,4.20
2023-03-28T19:43:26.136Z,7.95
2023-03-28T19:45:53.995Z,3.35
2023-03-28T19:48:21.085Z,3.17
2023-03-28T19:50:50.013Z,4.82
2023-03-28T19:53:17.229Z,5.05
2023-03-28T19:55:51.450Z,5.45
2023-03-28T19:58:18.823Z,7.82
2023-03-28T20:00:46.251Z,7.40
2023-03-28T20:03:13.897Z,4.70
2023-03-28T20:05:49.944Z,6.45
2023-03-28T20:08:18.935Z,5.47
2023-03-28T20:10:51.441Z,6.00
2023-03-28T20:13:19.052Z,6.35
2023-03-28T20:15:47.829Z,4.43
2023-03-28T20:18:21.100Z,5.32
2023-03-28T20:20:50.990Z,3.92
2023-03-28T20:23:20.432Z,5.25
2023-03-28T20:25:47.833Z,4.00
2023-03-28T20:28:15.239Z,7.72
2023-03-28T20:30:44.387Z,3.40
2023-03-28T20:33:11.584Z,5.93
2023-03-28T20:35:38.536Z,4.75
2023-03-28T20:38:05.549Z,5.13
2023-03-28T20:40:32.528Z,4.70
2023-03-28T20:43:02.023Z,6.10
2023-03-28T20:45:29.615Z,7.40
2023-03-28T20:47:58.906Z,7.07
2023-03-28T20:50:34.209Z,6.80
2023-03-28T20:53:05.819Z,5.95
2023-03-28T20:55:34.522Z,7.20
2023-03-28T20:58:04.553Z,4.82
2023-03-28T21:00:35.693Z,5.82
2023-03-28T21:03:03.781Z,6.45
2023-03-28T21:05:31.754Z,5.30
2023-03-28T21:07:59.317Z,4.53
2023-03-28T21:10:26.912Z,4.63
2023-03-28T21:12:54.146Z,5.97
2023-03-28T21:15:21.172Z,4.47
2023-03-28T21:17:49.583Z,3.17
2023-03-28T21:20:18.565Z,3.58
2023-03-28T21:22:45.757Z,6.18
2023-03-28T21:25:14.242Z,5.78
2023-03-28T21:27:41.451Z,3.65
2023-03-28T21:30:14.819Z,4.28
2023-03-28T21:32:41.804Z,4.38
2023-03-28T21:35:09.835Z,4.25
2023-03-28T21:37:37.456Z,5.10
2023-03-28T21:40:07.249Z,6.00
2023-03-28T21:42:35.023Z,4.30
2023-03-28T21:45:02.060Z,3.70
2023-03-28T21:47:28.989Z,5.32
2023-03-28T21:49:56.002Z,4.07
2023-03-28T21:52:23.038Z,4.13
2023-03-28T21:54:50.232Z,5.05
2023-03-28T21:57:17.537Z,3.58
2023-03-28T21:59:46.422Z,7.32
2023-03-28T22:02:13.889Z,5.18
2023-03-28T22:04:42.980Z,3.97
2023-03-28T22:07:11.010Z,3.90
2023-03-28T22:09:39.319Z,4.93
2023-03-28T22:12:07.481Z,6.10
2023-03-28T22:14:35.328Z,8.93
2023-03-28T22:17:02.607Z,8.32
2023-03-28T22:19:30.114Z,6.32
2023-03-28T22:22:00.949Z,4.15
2023-03-28T22:24:28.289Z,4.72
2023-03-28T22:26:55.852Z,5.00
2023-03-28T22:29:22.985Z,5.40
2023-03-28T22:31:50.334Z,7.18
2023-03-28T22:34:17.783Z,6.47
2023-03-28T22:36:44.785Z,4.13
2023-03-28T22:39:12.470Z,5.15
2023-03-28T22:41:44.954Z,4.35
2023-03-28T22:44:13.140Z,5.60
2023-03-28T22:46:41.341Z,4.65
2023-03-28T22:49:10.400Z,4.63
2023-03-28T22:51:47.064Z,8.63
2023-03-28T22:54:15.983Z,4.90
2023-03-28T22:56:46.097Z,5.18
2023-03-28T22:59:13.474Z,5.25
2023-03-28T23:01:41.105Z,4.40
2023-03-28T23:04:08.378Z,3.60
2023-03-28T23:06:36.069Z,4.50
2023-03-28T23:09:03.279Z,5.65
2023-03-28T23:11:30.407Z,4.07
2023-03-28T23:13:57.461Z,4.50
2023-03-28T23:16:24.730Z,3.72
2023-03-28T23:18:51.777Z,3.90
2023-03-28T23:21:19.007Z,4.72
2023-03-28T23:23:47.235Z,3.33
2023-03-28T23:26:14.551Z,3.20
2023-03-28T23:28:41.656Z,2.85
2023-03-28T23:31:10.739Z,4.20
2023-03-28T23:33:38.355Z,5.57
2023-03-28T23:36:06.512Z,4.28
2023-03-28T23:38:34.241Z,3.70
2023-03-28T23:41:01.497Z,4.15
2023-03-28T23:43:29.834Z,4.00
2023-03-28T23:45:57.366Z,4.60
2023-03-28T23:48:24.824Z,3.97
2023-03-28T23:50:51.964Z,3.05
2023-03-28T23:53:19.008Z,3.30
2023-03-28T23:55:46.206Z,2.97
2023-03-28T23:58:13.181Z,3.60
